Time;durP1;ratioP1;P1;durP2;ratioP2;P2;SDS_P1;SDS_P2;PMS_P1;PMS_P2;Temp;Humidity;BMP_temperature;BMP_pressure;BME280_temperature;BME280_humidity;BME280_pressure;Samples;Min_cycle;Max_cycle;Signal;HPM_P1;HPM_P2
2021/07/27 00:00:38;;;;;;;11.93;6.60;;;;;;;;;;5075894;28;20515;-70
2021/07/27 00:03:05;;;;;;;10.20;6.10;;;;;;;;;;5093259;28;20403;-70
2021/07/27 00:05:31;;;;;;;10.60;6.70;;;;;;;;;;5092260;28;20403;-70
2021/07/27 00:07:57;;;;;;;10.33;6.80;;;;;;;;;;5093628;28;20392;-70
2021/07/27 00:10:30;;;;;;;11.00;6.80;;;;;;;;;;5092956;28;20820;-70
2021/07/27 00:12:56;;;;;;;9.50;6.70;;;;;;;;;;5093045;28;20396;-70
2021/07/27 00:15:22;;;;;;;7.60;6.40;;;;;;;;;;5092294;28;20483;-70
2021/07/27 00:17:48;;;;;;;8.57;6.27;;;;;;;;;;5093037;28;20388;-69
2021/07/27 00:20:14;;;;;;;9.23;6.67;;;;;;;;;;5093157;28;20465;-69
2021/07/27 00:22:41;;;;;;;12.47;7.60;;;;;;;;;;5073146;28;20429;-69
2021/07/27 00:25:10;;;;;;;14.37;7.40;;;;;;;;;;5072838;28;20479;-69
2021/07/27 00:27:36;;;;;;;15.93;8.07;;;;;;;;;;5091367;28;20944;-69
2021/07/27 00:30:05;;;;;;;11.90;8.03;;;;;;;;;;5093014;28;20429;-70
2021/07/27 00:32:31;;;;;;;11.23;7.70;;;;;;;;;;5091702;28;20495;-69
2021/07/27 00:34:57;;;;;;;12.30;7.33;;;;;;;;;;5092769;28;20412;-70
2021/07/27 00:37:28;;;;;;;13.73;7.70;;;;;;;;;;5092578;28;20482;-69
2021/07/27 00:39:55;;;;;;;11.57;7.03;;;;;;;;;;5093216;28;20391;-70
2021/07/27 00:42:21;;;;;;;14.27;7.50;;;;;;;;;;5091916;28;20802;-70
2021/07/27 00:44:47;;;;;;;10.03;6.80;;;;;;;;;;5093008;28;20458;-70
2021/07/27 00:47:13;;;;;;;10.57;6.27;;;;;;;;;;5092418;28;20920;-70
2021/07/27 00:49:39;;;;;;;13.27;7.50;;;;;;;;;;5089087;28;20487;-70
2021/07/27 00:52:06;;;;;;;11.90;7.43;;;;;;;;;;5092658;28;20408;-70
2021/07/27 00:54:33;;;;;;;12.93;7.07;;;;;;;;;;5092875;28;20420;-70
2021/07/27 00:56:59;;;;;;;9.57;7.10;;;;;;;;;;5113436;22;20574;-68
2021/07/27 00:59:27;;;;;;;9.90;6.80;;;;;;;;;;5092743;28;20392;-68
2021/07/27 01:01:53;;;;;;;11.50;7.20;;;;;;;;;;5090548;28;20452;-68
2021/07/27 01:04:19;;;;;;;8.50;5.90;;;;;;;;;;5092399;28;20450;-68
2021/07/27 01:06:45;;;;;;;11.87;6.60;;;;;;;;;;5086230;28;20441;-68
2021/07/27 01:09:11;;;;;;;8.50;5.50;;;;;;;;;;5065528;28;20423;-68
2021/07/27 01:11:41;;;;;;;10.60;6.03;;;;;;;;;;5054497;28;20402;-68
2021/07/27 01:14:07;;;;;;;8.07;6.03;;;;;;;;;;5072633;28;20408;-68
2021/07/27 01:16:35;;;;;;;8.90;6.03;;;;;;;;;;5092509;28;20424;-68
2021/07/27 01:19:19;;;;;;;9.90;6.23;;;;;;;;;;5072253;28;20428;-68
2021/07/27 01:43:20;;;;;;;10.20;6.97;;;;;;;;;;5071352;28;20920;-68
2021/07/27 01:45:46;;;;;;;8.03;5.57;;;;;;;;;;5075898;28;20456;-67
2021/07/27 01:48:13;;;;;;;9.67;6.40;;;;;;;;;;5083299;28;20429;-68
2021/07/27 01:50:42;;;;;;;11.13;5.57;;;;;;;;;;5075324;28;20413;-67
2021/07/27 01:53:10;;;;;;;9.97;6.50;;;;;;;;;;5074362;28;20425;-68
2021/07/27 01:55:36;;;;;;;10.70;6.30;;;;;;;;;;5075234;28;20475;-68
2021/07/27 01:58:02;;;;;;;9.53;6.30;;;;;;;;;;5074498;28;20463;-68
2021/07/27 02:00:28;;;;;;;9.43;5.80;;;;;;;;;;5075489;28;20407;-68
2021/07/27 02:02:54;;;;;;;9.53;5.70;;;;;;;;;;5074171;28;20421;-68
2021/07/27 02:05:20;;;;;;;8.53;5.80;;;;;;;;;;5075679;28;20935;-68
2021/07/27 02:07:46;;;;;;;10.83;6.83;;;;;;;;;;5074625;28;20551;-68
2021/07/27 02:10:14;;;;;;;13.03;7.33;;;;;;;;;;5075282;28;20461;-68
2021/07/27 02:12:49;;;;;;;10.57;6.63;;;;;;;;;;5073669;28;20802;-68
2021/07/27 02:15:16;;;;;;;13.40;5.87;;;;;;;;;;5057923;28;20499;-68
2021/07/27 02:17:42;;;;;;;11.57;5.33;;;;;;;;;;5074396;28;20452;-67
2021/07/27 02:20:08;;;;;;;9.90;6.23;;;;;;;;;;5076045;28;20895;-68
2021/07/27 02:22:34;;;;;;;9.03;6.20;;;;;;;;;;5074361;28;20527;-67
2021/07/27 02:25:00;;;;;;;9.67;6.27;;;;;;;;;;5074890;28;20468;-67
2021/07/27 02:27:27;;;;;;;9.67;6.17;;;;;;;;;;5073398;28;20936;-67
2021/07/27 02:29:53;;;;;;;12.43;5.87;;;;;;;;;;5075332;28;20523;-68
2021/07/27 02:32:19;;;;;;;12.00;6.70;;;;;;;;;;5074118;28;20433;-67
2021/07/27 02:34:46;;;;;;;16.60;8.37;;;;;;;;;;5075131;28;20495;-68
2021/07/27 02:37:12;;;;;;;13.87;8.17;;;;;;;;;;5073746;28;20427;-67
2021/07/27 02:39:38;;;;;;;12.80;7.53;;;;;;;;;;5090434;28;20749;-67
2021/07/27 02:42:04;;;;;;;10.57;7.03;;;;;;;;;;5047682;28;20817;-68
2021/07/27 02:44:30;;;;;;;9.80;7.63;;;;;;;;;;5073096;28;21007;-67
2021/07/27 02:46:56;;;;;;;13.73;7.43;;;;;;;;;;5073652;28;20868;-67
2021/07/27 02:49:23;;;;;;;9.43;6.40;;;;;;;;;;5074956;28;20417;-68
2021/07/27 02:51:49;;;;;;;9.87;6.57;;;;;;;;;;5074934;28;20507;-68
2021/07/27 02:54:15;;;;;;;7.73;5.20;;;;;;;;;;5073112;28;20433;-67
2021/07/27 02:56:41;;;;;;;13.10;6.37;;;;;;;;;;5074289;28;20744;-67
2021/07/27 02:59:07;;;;;;;11.63;5.03;;;;;;;;;;5083614;28;20795;-68
2021/07/27 03:01:33;;;;;;;10.43;6.57;;;;;;;;;;5074012;28;20436;-68
2021/07/27 03:04:00;;;;;;;9.70;6.30;;;;;;;;;;5073166;28;20448;-68
2021/07/27 03:06:27;;;;;;;9.40;6.23;;;;;;;;;;5074189;28;20490;-68
2021/07/27 03:11:23;;;;;;;7.83;6.00;;;;;;;;;;5073845;28;20401;-68
2021/07/27 03:13:49;;;;;;;7.50;5.87;;;;;;;;;;5072881;28;20432;-67
2021/07/27 03:16:19;;;;;;;13.60;6.40;;;;;;;;;;5074077;28;20957;-68
2021/07/27 03:18:46;;;;;;;14.23;6.70;;;;;;;;;;5073089;28;20429;-68
2021/07/27 03:21:19;;;;;;;12.00;5.60;;;;;;;;;;5055971;28;20413;-68
2021/07/27 03:23:45;;;;;;;9.80;5.80;;;;;;;;;;5083410;28;20463;-67
2021/07/27 03:26:12;;;;;;;8.80;5.50;;;;;;;;;;5094084;28;20428;-68
2021/07/27 03:28:39;;;;;;;8.17;5.87;;;;;;;;;;5075248;28;20456;-67
2021/07/27 03:31:05;;;;;;;14.23;6.13;;;;;;;;;;5054145;28;20401;-67
2021/07/27 03:33:31;;;;;;;9.23;5.87;;;;;;;;;;5060121;28;20459;-68
2021/07/27 03:35:57;;;;;;;6.90;5.67;;;;;;;;;;5073650;28;20525;-68
2021/07/27 03:38:24;;;;;;;10.53;6.40;;;;;;;;;;5083011;28;20452;-66
2021/07/27 03:40:50;;;;;;;8.70;5.50;;;;;;;;;;5073436;28;20401;-68
2021/07/27 03:43:16;;;;;;;8.63;6.17;;;;;;;;;;5071484;28;20796;-67
2021/07/27 03:45:42;;;;;;;8.30;5.43;;;;;;;;;;5060865;28;20961;-66
2021/07/27 03:48:08;;;;;;;8.97;6.07;;;;;;;;;;5057373;28;20470;-68
2021/07/27 03:50:34;;;;;;;9.97;6.87;;;;;;;;;;5073154;28;20757;-68
2021/07/27 03:53:00;;;;;;;9.20;5.23;;;;;;;;;;5080457;28;20420;-68
2021/07/27 03:55:26;;;;;;;10.20;6.00;;;;;;;;;;5093126;28;20440;-68
2021/07/27 03:57:55;;;;;;;11.83;5.50;;;;;;;;;;5089769;28;20433;-68
2021/07/27 04:00:23;;;;;;;13.33;5.80;;;;;;;;;;5072950;28;20451;-68
2021/07/27 04:02:49;;;;;;;8.67;6.20;;;;;;;;;;5072031;28;20397;-68
2021/07/27 04:05:15;;;;;;;8.63;6.07;;;;;;;;;;5072917;28;20826;-68
2021/07/27 04:07:42;;;;;;;10.57;5.80;;;;;;;;;;5072009;28;20890;-69
2021/07/27 04:10:08;;;;;;;9.37;6.10;;;;;;;;;;5072383;28;20484;-68
2021/07/27 04:12:37;;;;;;;8.17;6.07;;;;;;;;;;5072784;28;20432;-68
2021/07/27 04:15:03;;;;;;;9.70;6.37;;;;;;;;;;5054243;28;20429;-69
2021/07/27 04:17:29;;;;;;;11.77;5.70;;;;;;;;;;5058304;28;20439;-68
2021/07/27 04:19:55;;;;;;;8.07;5.97;;;;;;;;;;5072952;28;20932;-68
2021/07/27 04:22:21;;;;;;;9.47;5.77;;;;;;;;;;5072812;28;20753;-68
2021/07/27 04:24:47;;;;;;;10.90;6.03;;;;;;;;;;5082662;28;20451;-68
2021/07/27 04:27:13;;;;;;;14.90;6.50;;;;;;;;;;5091226;28;20448;-68
2021/07/27 04:29:39;;;;;;;8.53;5.90;;;;;;;;;;5062333;28;20429;-68
2021/07/27 04:32:05;;;;;;;8.57;5.97;;;;;;;;;;5072992;28;20393;-68
2021/07/27 04:34:31;;;;;;;10.57;6.10;;;;;;;;;;5050376;28;20437;-68
2021/07/27 04:36:57;;;;;;;10.37;6.40;;;;;;;;;;5052601;28;20421;-68
2021/07/27 04:39:23;;;;;;;14.07;6.90;;;;;;;;;;5060135;28;20421;-68
2021/07/27 04:41:49;;;;;;;10.00;6.83;;;;;;;;;;5080713;28;20569;-68
2021/07/27 04:44:15;;;;;;;10.70;6.17;;;;;;;;;;5072439;28;20539;-68
2021/07/27 04:46:41;;;;;;;14.60;7.40;;;;;;;;;;5086238;28;20444;-68
2021/07/27 04:49:07;;;;;;;12.27;6.97;;;;;;;;;;5079290;28;20746;-68
2021/07/27 04:51:33;;;;;;;13.87;7.07;;;;;;;;;;5072560;28;20396;-68
2021/07/27 04:54:04;;;;;;;9.03;7.17;;;;;;;;;;5071653;28;20429;-68
2021/07/27 04:56:33;;;;;;;14.87;8.67;;;;;;;;;;5054487;28;20457;-67
2021/07/27 04:59:00;;;;;;;11.00;8.47;;;;;;;;;;5071725;28;20450;-68
2021/07/27 05:01:26;;;;;;;12.07;7.50;;;;;;;;;;5092626;28;20404;-68
2021/07/27 05:03:52;;;;;;;10.93;7.50;;;;;;;;;;5090649;28;20543;-68
2021/07/27 05:06:21;;;;;;;11.53;7.73;;;;;;;;;;5069721;28;20536;-69
2021/07/27 05:08:56;;;;;;;13.83;6.67;;;;;;;;;;5067186;28;20781;-69
2021/07/27 05:11:22;;;;;;;12.43;7.27;;;;;;;;;;5070065;28;20440;-68
2021/07/27 05:13:48;;;;;;;10.93;7.23;;;;;;;;;;5071191;28;20451;-67
2021/07/27 05:16:18;;;;;;;10.40;6.77;;;;;;;;;;5053823;28;20502;-67
2021/07/27 05:18:44;;;;;;;10.33;7.33;;;;;;;;;;5071279;28;20435;-67
2021/07/27 05:21:10;;;;;;;9.70;6.50;;;;;;;;;;5070755;28;20520;-67
2021/07/27 05:23:36;;;;;;;12.63;6.73;;;;;;;;;;5074591;28;20941;-69
2021/07/27 05:26:05;;;;;;;12.60;6.70;;;;;;;;;;5075212;28;20444;-69
2021/07/27 05:28:31;;;;;;;9.97;6.67;;;;;;;;;;5057834;28;20415;-69
2021/07/27 05:30:57;;;;;;;7.90;5.57;;;;;;;;;;5062276;28;20799;-68
2021/07/27 05:33:23;;;;;;;9.17;6.40;;;;;;;;;;5056859;28;20759;-68
2021/07/27 05:35:49;;;;;;;10.93;6.17;;;;;;;;;;5057458;28;20470;-69
2021/07/27 05:38:15;;;;;;;10.90;7.20;;;;;;;;;;5075575;28;20450;-69
2021/07/27 05:40:41;;;;;;;9.23;5.93;;;;;;;;;;5074460;28;20510;-69
2021/07/27 05:43:07;;;;;;;7.50;6.20;;;;;;;;;;5075754;28;20412;-68
2021/07/27 05:45:33;;;;;;;9.00;6.37;;;;;;;;;;5056720;28;20552;-68
2021/07/27 05:47:59;;;;;;;10.23;6.57;;;;;;;;;;5075752;28;20401;-68
2021/07/27 05:50:25;;;;;;;13.50;7.00;;;;;;;;;;5087840;28;20432;-68
2021/07/27 05:52:58;;;;;;;11.93;7.10;;;;;;;;;;5095704;28;20465;-69
2021/07/27 05:55:24;;;;;;;9.80;7.50;;;;;;;;;;5075348;28;20455;-69
2021/07/27 05:57:50;;;;;;;10.77;6.90;;;;;;;;;;5095940;28;20387;-68
2021/07/27 06:00:16;;;;;;;10.77;6.47;;;;;;;;;;5093714;28;20494;-69
2021/07/27 06:02:42;;;;;;;10.90;6.90;;;;;;;;;;5095596;28;20491;-68
2021/07/27 06:05:08;;;;;;;14.03;7.83;;;;;;;;;;5083376;28;20496;-68
2021/07/27 06:07:34;;;;;;;11.47;7.30;;;;;;;;;;5075128;28;20399;-68
2021/07/27 06:10:00;;;;;;;11.53;7.20;;;;;;;;;;5074181;28;20512;-68
2021/07/27 06:12:26;;;;;;;11.43;7.40;;;;;;;;;;5075016;28;20959;-68
2021/07/27 06:14:53;;;;;;;10.20;8.00;;;;;;;;;;5074054;28;20429;-68
2021/07/27 06:17:19;;;;;;;11.67;8.50;;;;;;;;;;5057022;28;20809;-68
2021/07/27 06:19:45;;;;;;;10.60;6.17;;;;;;;;;;5056271;28;20433;-68
2021/07/27 06:22:11;;;;;;;11.27;6.53;;;;;;;;;;5075026;28;20406;-68
2021/07/27 06:24:37;;;;;;;10.30;7.00;;;;;;;;;;5052554;28;20479;-68
2021/07/27 06:27:04;;;;;;;8.10;5.87;;;;;;;;;;5054700;28;20425;-69
2021/07/27 06:29:31;;;;;;;10.50;6.57;;;;;;;;;;5068473;28;20428;-69
2021/07/27 06:31:57;;;;;;;8.60;5.70;;;;;;;;;;5074875;28;20397;-68
2021/07/27 06:34:23;;;;;;;12.87;6.70;;;;;;;;;;5073266;28;20456;-68
2021/07/27 06:36:49;;;;;;;7.63;5.70;;;;;;;;;;5076750;28;20471;-68
2021/07/27 06:39:17;;;;;;;8.10;5.67;;;;;;;;;;5082130;28;20420;-68
2021/07/27 06:41:43;;;;;;;6.67;5.77;;;;;;;;;;5078973;28;20870;-68
2021/07/27 06:44:09;;;;;;;7.80;6.07;;;;;;;;;;5087812;28;20455;-68
2021/07/27 06:46:37;;;;;;;7.33;5.73;;;;;;;;;;5095149;28;20430;-68
2021/07/27 06:49:04;;;;;;;5.97;5.10;;;;;;;;;;5094307;28;20388;-68
2021/07/27 06:51:30;;;;;;;8.53;6.00;;;;;;;;;;5074118;28;20420;-68
2021/07/27 06:53:56;;;;;;;9.70;7.80;;;;;;;;;;5074563;28;20432;-68
2021/07/27 06:56:22;;;;;;;6.63;5.60;;;;;;;;;;5120294;22;20921;-68
2021/07/27 06:58:48;;;;;;;6.73;4.93;;;;;;;;;;5113653;28;20403;-70
2021/07/27 07:01:14;;;;;;;7.17;5.30;;;;;;;;;;5113285;28;20907;-70
2021/07/27 07:03:44;;;;;;;8.20;4.83;;;;;;;;;;5117022;27;20507;-70
2021/07/27 07:06:12;;;;;;;7.60;5.10;;;;;;;;;;5100045;28;20444;-69
2021/07/27 07:08:38;;;;;;;5.57;4.60;;;;;;;;;;5099752;28;20419;-69
2021/07/27 07:11:05;;;;;;;6.87;5.30;;;;;;;;;;5081467;28;20766;-69
2021/07/27 07:13:32;;;;;;;5.70;4.90;;;;;;;;;;5087873;28;20465;-70
2021/07/27 07:15:58;;;;;;;7.17;4.33;;;;;;;;;;5071052;28;20527;-69
2021/07/27 07:18:24;;;;;;;6.00;4.80;;;;;;;;;;5090377;28;20420;-69
2021/07/27 07:20:51;;;;;;;5.83;4.10;;;;;;;;;;5084168;28;20423;-70
2021/07/27 07:23:18;;;;;;;7.60;4.90;;;;;;;;;;5084471;28;20481;-70
2021/07/27 07:25:44;;;;;;;5.40;4.13;;;;;;;;;;5071734;28;20527;-68
2021/07/27 07:28:11;;;;;;;6.23;4.10;;;;;;;;;;5080403;28;20496;-70
2021/07/27 07:30:37;;;;;;;5.20;4.10;;;;;;;;;;5070694;28;20420;-71
2021/07/27 07:33:03;;;;;;;5.80;3.97;;;;;;;;;;5080518;28;20458;-71
2021/07/27 07:35:29;;;;;;;5.53;4.33;;;;;;;;;;5090613;28;20798;-70
2021/07/27 07:37:56;;;;;;;5.20;3.70;;;;;;;;;;5089330;28;20507;-70
2021/07/27 07:40:22;;;;;;;5.30;4.20;;;;;;;;;;5091505;28;20424;-70
2021/07/27 07:42:48;;;;;;;6.30;3.97;;;;;;;;;;5092457;28;20839;-70
2021/07/27 07:45:14;;;;;;;5.57;4.07;;;;;;;;;;5094126;28;20448;-70
2021/07/27 07:47:43;;;;;;;6.40;4.60;;;;;;;;;;5083376;28;20429;-70
2021/07/27 07:50:10;;;;;;;7.27;3.87;;;;;;;;;;5081458;28;20819;-70
2021/07/27 07:52:36;;;;;;;6.20;4.10;;;;;;;;;;5076266;28;20408;-70
2021/07/27 07:55:06;;;;;;;7.73;4.03;;;;;;;;;;5078254;28;20493;-70
2021/07/27 07:57:37;;;;;;;4.40;3.70;;;;;;;;;;5079445;28;20949;-70
2021/07/27 08:00:03;;;;;;;6.07;3.83;;;;;;;;;;5077261;28;20428;-70
2021/07/27 08:02:29;;;;;;;6.10;4.20;;;;;;;;;;5082454;28;20420;-70
2021/07/27 08:04:55;;;;;;;4.47;3.80;;;;;;;;;;5089284;28;20563;-70
2021/07/27 08:07:22;;;;;;;5.23;3.43;;;;;;;;;;5080903;28;20533;-70
2021/07/27 08:09:48;;;;;;;5.37;3.40;;;;;;;;;;5079950;28;20423;-70
2021/07/27 08:12:17;;;;;;;5.30;3.53;;;;;;;;;;5071875;28;20403;-70
2021/07/27 08:14:44;;;;;;;5.83;4.50;;;;;;;;;;5073435;28;20431;-70
2021/07/27 08:17:10;;;;;;;5.73;3.60;;;;;;;;;;5088267;28;20447;-70
2021/07/27 08:19:36;;;;;;;5.00;3.80;;;;;;;;;;5088225;28;20418;-70
2021/07/27 08:22:02;;;;;;;6.30;5.10;;;;;;;;;;5089127;28;20423;-70
2021/07/27 08:24:30;;;;;;;15.53;7.23;;;;;;;;;;5078402;28;20455;-70
2021/07/27 08:26:56;;;;;;;4.90;4.03;;;;;;;;;;5071275;28;20483;-70
2021/07/27 08:29:22;;;;;;;6.40;4.97;;;;;;;;;;5081909;28;20419;-70
2021/07/27 08:31:49;;;;;;;5.63;4.07;;;;;;;;;;5074772;28;20911;-70
2021/07/27 08:34:19;;;;;;;6.70;4.40;;;;;;;;;;5080781;28;20439;-70
2021/07/27 08:36:45;;;;;;;7.07;3.90;;;;;;;;;;5081910;28;20504;-70
2021/07/27 08:39:11;;;;;;;6.60;4.17;;;;;;;;;;5082169;28;20788;-70
2021/07/27 08:41:38;;;;;;;6.10;4.07;;;;;;;;;;5090729;28;20897;-70
2021/07/27 08:44:24;;;;;;;8.27;3.83;;;;;;;;;;5085283;28;20463;-70
2021/07/27 08:46:51;;;;;;;5.70;4.37;;;;;;;;;;5084031;28;20785;-70
2021/07/27 08:49:17;;;;;;;5.47;3.60;;;;;;;;;;5079992;28;20506;-70
2021/07/27 08:51:44;;;;;;;5.10;3.57;;;;;;;;;;5080420;28;20426;-69
2021/07/27 08:54:10;;;;;;;5.57;3.70;;;;;;;;;;5091811;28;21695;-70
2021/07/27 08:56:50;;;;;;;6.40;3.80;;;;;;;;;;5082600;28;20460;-70
2021/07/27 08:59:16;;;;;;;5.10;3.67;;;;;;;;;;5076306;28;20459;-70
2021/07/27 09:01:42;;;;;;;5.90;3.70;;;;;;;;;;5091621;28;20564;-70
2021/07/27 09:04:08;;;;;;;5.27;3.90;;;;;;;;;;5088669;28;20931;-71
2021/07/27 09:06:34;;;;;;;9.47;4.13;;;;;;;;;;5077755;28;20791;-71
2021/07/27 09:09:07;;;;;;;4.83;3.43;;;;;;;;;;5090697;28;20460;-69
2021/07/27 09:11:34;;;;;;;4.70;4.03;;;;;;;;;;5103674;28;20431;-69
2021/07/27 09:14:00;;;;;;;5.43;3.30;;;;;;;;;;5106397;28;20897;-70
2021/07/27 09:16:26;;;;;;;6.80;4.83;;;;;;;;;;5085189;28;20487;-70
2021/07/27 09:18:59;;;;;;;6.83;4.30;;;;;;;;;;5085961;28;20421;-70
2021/07/27 09:21:25;;;;;;;6.33;3.80;;;;;;;;;;5085645;28;20762;-70
2021/07/27 09:23:51;;;;;;;4.67;3.57;;;;;;;;;;5085999;28;20452;-69
2021/07/27 09:26:21;;;;;;;5.53;3.93;;;;;;;;;;5081185;28;20542;-69
2021/07/27 09:28:47;;;;;;;5.73;4.03;;;;;;;;;;5085969;28;20415;-69
2021/07/27 09:31:13;;;;;;;7.70;4.40;;;;;;;;;;5081200;28;20963;-69
2021/07/27 09:33:39;;;;;;;7.30;4.10;;;;;;;;;;5080107;28;20435;-69
2021/07/27 09:36:07;;;;;;;8.03;4.27;;;;;;;;;;5088495;28;20534;-69
2021/07/27 09:38:33;;;;;;;7.10;3.83;;;;;;;;;;5089513;28;20477;-69
2021/07/27 09:41:01;;;;;;;5.37;4.10;;;;;;;;;;5104063;28;20913;-69
2021/07/27 09:43:27;;;;;;;5.50;3.57;;;;;;;;;;5082168;28;20749;-70
2021/07/27 09:45:55;;;;;;;5.20;4.13;;;;;;;;;;5080620;28;20479;-69
2021/07/27 09:48:21;;;;;;;7.50;4.17;;;;;;;;;;5086685;28;20788;-69
2021/07/27 09:50:48;;;;;;;7.63;4.30;;;;;;;;;;5088580;28;20425;-70
2021/07/27 09:53:15;;;;;;;5.47;3.30;;;;;;;;;;5082672;28;20769;-70
2021/07/27 09:55:41;;;;;;;4.00;3.37;;;;;;;;;;5084216;28;20451;-70
2021/07/27 09:58:07;;;;;;;7.63;4.93;;;;;;;;;;5077097;28;20408;-69
2021/07/27 10:00:44;;;;;;;4.50;3.30;;;;;;;;;;5076690;28;20946;-69
2021/07/27 10:03:16;;;;;;;6.27;4.27;;;;;;;;;;5093508;28;20410;-69
2021/07/27 10:05:45;;;;;;;9.87;3.87;;;;;;;;;;5090748;28;20471;-69
2021/07/27 10:08:11;;;;;;;7.70;4.50;;;;;;;;;;5093749;28;20867;-69
2021/07/27 10:10:38;;;;;;;6.33;4.37;;;;;;;;;;5080088;28;20502;-70
2021/07/27 10:13:08;;;;;;;6.90;3.30;;;;;;;;;;5093104;28;20423;-69
2021/07/27 10:15:47;;;;;;;6.70;3.67;;;;;;;;;;5084231;28;20419;-66
2021/07/27 10:18:14;;;;;;;5.43;3.50;;;;;;;;;;5074223;28;20435;-66
2021/07/27 10:20:40;;;;;;;5.93;3.83;;;;;;;;;;5076789;28;20803;-66
2021/07/27 10:23:14;;;;;;;5.00;3.77;;;;;;;;;;5081430;28;20489;-66
2021/07/27 10:25:40;;;;;;;6.07;3.90;;;;;;;;;;5076383;28;20596;-66
2021/07/27 10:28:06;;;;;;;8.03;4.10;;;;;;;;;;5085807;28;20459;-65
2021/07/27 10:30:32;;;;;;;5.33;3.87;;;;;;;;;;5082751;28;20417;-66
2021/07/27 10:32:59;;;;;;;5.07;3.33;;;;;;;;;;5076038;28;20412;-65
2021/07/27 10:35:32;;;;;;;5.60;3.87;;;;;;;;;;5082631;28;20412;-66
2021/07/27 10:38:11;;;;;;;4.90;3.20;;;;;;;;;;5078323;28;20457;-66
2021/07/27 10:40:37;;;;;;;4.67;3.90;;;;;;;;;;5085416;28;20408;-66
2021/07/27 10:43:05;;;;;;;5.10;3.93;;;;;;;;;;5081094;28;20433;-68
2021/07/27 10:45:31;;;;;;;5.03;3.20;;;;;;;;;;5083750;28;20936;-66
2021/07/27 10:47:57;;;;;;;5.20;3.80;;;;;;;;;;5078159;28;20754;-66
2021/07/27 10:50:30;;;;;;;6.83;4.77;;;;;;;;;;5083866;28;20412;-66
2021/07/27 10:53:01;;;;;;;7.70;3.57;;;;;;;;;;5081088;28;20431;-69
2021/07/27 10:55:28;;;;;;;5.83;3.57;;;;;;;;;;5088345;28;20432;-69
2021/07/27 10:57:55;;;;;;;8.10;4.03;;;;;;;;;;5081741;28;20428;-69
2021/07/27 11:00:30;;;;;;;5.50;3.90;;;;;;;;;;5092109;28;20468;-70
2021/07/27 11:02:56;;;;;;;7.13;4.10;;;;;;;;;;5083881;28;20397;-69
2021/07/27 11:05:26;;;;;;;5.37;3.30;;;;;;;;;;5075470;28;20478;-69
2021/07/27 11:07:52;;;;;;;4.67;3.70;;;;;;;;;;5074626;28;20429;-70
2021/07/27 11:10:22;;;;;;;5.00;3.57;;;;;;;;;;5081302;28;20758;-70
2021/07/27 11:12:49;;;;;;;4.67;3.37;;;;;;;;;;5082023;28;20400;-70
2021/07/27 11:15:19;;;;;;;6.30;3.80;;;;;;;;;;5099796;28;20425;-69
2021/07/27 11:17:46;;;;;;;4.97;3.80;;;;;;;;;;5093472;28;20476;-70
2021/07/27 11:20:13;;;;;;;5.90;3.70;;;;;;;;;;5095821;28;20419;-69
2021/07/27 11:22:44;;;;;;;4.70;3.97;;;;;;;;;;5082090;28;20456;-70
2021/07/27 11:25:11;;;;;;;6.30;4.63;;;;;;;;;;5080902;28;20448;-70
2021/07/27 11:27:37;;;;;;;4.43;3.10;;;;;;;;;;5082968;28;20514;-71
2021/07/27 11:30:05;;;;;;;6.60;3.47;;;;;;;;;;5073311;28;20408;-69
2021/07/27 11:32:52;;;;;;;4.40;2.57;;;;;;;;;;5083446;28;20508;-69
2021/07/27 11:35:22;;;;;;;5.43;3.50;;;;;;;;;;5079948;28;20417;-69
2021/07/27 11:38:01;;;;;;;4.30;3.20;;;;;;;;;;5084695;28;20507;-70
2021/07/27 11:40:34;;;;;;;4.43;3.03;;;;;;;;;;5058702;28;20592;-69
2021/07/27 11:43:00;;;;;;;3.90;3.07;;;;;;;;;;5045669;28;20426;-69
2021/07/27 11:45:27;;;;;;;5.10;2.77;;;;;;;;;;5039234;28;20430;-70
2021/07/27 11:47:53;;;;;;;4.00;2.83;;;;;;;;;;5036909;28;20423;-69
2021/07/27 11:50:32;;;;;;;3.90;3.03;;;;;;;;;;5039361;28;20697;-69
2021/07/27 11:52:59;;;;;;;4.80;3.00;;;;;;;;;;5036052;28;20414;-69
2021/07/27 11:55:29;;;;;;;4.23;2.90;;;;;;;;;;5039678;28;20428;-69
2021/07/27 11:57:55;;;;;;;4.30;3.10;;;;;;;;;;5038576;28;20452;-69
2021/07/27 12:00:21;;;;;;;4.60;3.67;;;;;;;;;;5043297;28;20450;-69
2021/07/27 12:02:47;;;;;;;5.10;3.10;;;;;;;;;;5033638;28;20851;-69
2021/07/27 12:05:14;;;;;;;5.10;3.10;;;;;;;;;;5033293;28;20490;-69
2021/07/27 12:07:40;;;;;;;4.87;3.57;;;;;;;;;;5034074;28;20453;-69
2021/07/27 12:10:06;;;;;;;5.43;4.03;;;;;;;;;;5045909;28;21011;-69
2021/07/27 12:12:33;;;;;;;3.73;2.63;;;;;;;;;;5043409;28;20429;-69
2021/07/27 12:14:59;;;;;;;4.50;2.90;;;;;;;;;;5045684;28;20467;-69
2021/07/27 12:17:25;;;;;;;6.70;3.60;;;;;;;;;;5043304;28;20813;-69
2021/07/27 12:19:51;;;;;;;4.10;2.93;;;;;;;;;;5041866;28;20461;-69
2021/07/27 12:22:18;;;;;;;4.40;3.37;;;;;;;;;;5042377;28;20413;-68
2021/07/27 12:24:44;;;;;;;4.00;3.03;;;;;;;;;;5047910;28;20457;-69
2021/07/27 12:27:10;;;;;;;6.30;3.40;;;;;;;;;;5039972;28;21003;-69
2021/07/27 12:29:36;;;;;;;4.77;3.50;;;;;;;;;;5041573;28;20429;-69
2021/07/27 12:32:03;;;;;;;3.53;2.80;;;;;;;;;;5039570;28;20521;-70
2021/07/27 12:34:29;;;;;;;4.00;3.23;;;;;;;;;;5044704;28;20426;-70
2021/07/27 12:36:55;;;;;;;5.33;3.20;;;;;;;;;;5036335;28;21112;-70
2021/07/27 12:39:23;;;;;;;4.40;2.40;;;;;;;;;;5037923;28;20467;-70
2021/07/27 12:41:49;;;;;;;4.00;2.83;;;;;;;;;;5041213;28;20468;-69
2021/07/27 12:44:16;;;;;;;5.60;3.47;;;;;;;;;;5033375;28;20407;-69
2021/07/27 12:46:42;;;;;;;4.20;3.10;;;;;;;;;;5042681;28;20437;-70
2021/07/27 12:49:13;;;;;;;5.10;3.13;;;;;;;;;;5038997;28;20425;-69
2021/07/27 12:51:39;;;;;;;5.00;3.17;;;;;;;;;;5028346;28;20441;-69
2021/07/27 12:54:05;;;;;;;6.13;3.40;;;;;;;;;;5020553;28;20419;-69
2021/07/27 12:56:31;;;;;;;3.70;3.10;;;;;;;;;;5027211;28;20445;-69
2021/07/27 12:59:00;;;;;;;4.77;3.67;;;;;;;;;;5028989;28;20944;-69
2021/07/27 13:01:26;;;;;;;4.13;3.60;;;;;;;;;;5027109;28;20943;-69
2021/07/27 13:03:52;;;;;;;4.20;3.10;;;;;;;;;;5021555;28;20836;-69
2021/07/27 13:06:18;;;;;;;4.77;3.03;;;;;;;;;;5026239;28;20515;-70
2021/07/27 13:08:44;;;;;;;7.47;3.83;;;;;;;;;;5027920;28;20524;-69
2021/07/27 13:11:11;;;;;;;4.00;3.20;;;;;;;;;;5028739;28;20462;-70
2021/07/27 13:13:37;;;;;;;4.67;3.60;;;;;;;;;;5027339;28;20466;-69
2021/07/27 13:16:03;;;;;;;5.57;3.30;;;;;;;;;;5028685;28;20434;-69
2021/07/27 13:18:30;;;;;;;4.47;3.40;;;;;;;;;;5029402;28;21033;-69
2021/07/27 13:20:56;;;;;;;7.93;3.40;;;;;;;;;;5018878;28;20514;-70
2021/07/27 13:23:22;;;;;;;3.70;2.87;;;;;;;;;;5026816;28;20431;-69
2021/07/27 13:25:48;;;;;;;5.40;3.67;;;;;;;;;;5024742;28;20437;-69
2021/07/27 13:28:14;;;;;;;5.30;3.70;;;;;;;;;;5024757;28;20803;-69
2021/07/27 13:30:40;;;;;;;3.63;2.80;;;;;;;;;;5028488;28;20414;-69
2021/07/27 13:33:06;;;;;;;5.70;4.43;;;;;;;;;;5023473;28;20499;-69
2021/07/27 13:35:32;;;;;;;14.17;9.47;;;;;;;;;;5022610;28;20973;-69
2021/07/27 13:37:59;;;;;;;3.67;2.70;;;;;;;;;;5018842;28;20422;-69
2021/07/27 13:40:25;;;;;;;5.23;3.00;;;;;;;;;;5026100;28;20462;-69
2021/07/27 13:42:51;;;;;;;4.20;2.90;;;;;;;;;;5027896;28;20443;-69
2021/07/27 13:45:17;;;;;;;5.17;2.80;;;;;;;;;;5023638;28;20429;-69
2021/07/27 13:47:43;;;;;;;6.70;3.80;;;;;;;;;;5024115;28;20450;-69
2021/07/27 13:50:09;;;;;;;7.30;3.20;;;;;;;;;;5025833;28;20513;-69
2021/07/27 13:52:35;;;;;;;4.13;3.00;;;;;;;;;;5028443;28;20452;-69
2021/07/27 13:55:01;;;;;;;3.47;2.93;;;;;;;;;;5020892;28;20427;-70
2021/07/27 13:57:27;;;;;;;6.43;3.07;;;;;;;;;;5027758;28;20539;-69
2021/07/27 13:59:54;;;;;;;4.40;3.17;;;;;;;;;;5027175;28;20454;-69
2021/07/27 14:02:20;;;;;;;3.60;3.03;;;;;;;;;;5025545;28;20427;-69
2021/07/27 14:04:46;;;;;;;3.63;2.73;;;;;;;;;;5022991;28;20422;-69
2021/07/27 14:07:12;;;;;;;4.40;3.33;;;;;;;;;;5031069;28;20434;-70
2021/07/27 14:09:38;;;;;;;6.00;3.27;;;;;;;;;;5024412;28;20433;-70
2021/07/27 14:12:04;;;;;;;7.20;3.30;;;;;;;;;;5030040;28;20430;-70
2021/07/27 14:14:31;;;;;;;5.03;3.07;;;;;;;;;;5030360;28;20431;-70
2021/07/27 14:16:57;;;;;;;3.40;3.10;;;;;;;;;;5030233;28;20791;-70
2021/07/27 14:19:23;;;;;;;3.80;2.93;;;;;;;;;;5024958;28;20474;-69
2021/07/27 14:21:49;;;;;;;6.27;3.63;;;;;;;;;;5024788;28;20507;-70
2021/07/27 14:24:18;;;;;;;4.07;3.20;;;;;;;;;;5018969;28;20514;-69
2021/07/27 14:26:44;;;;;;;3.93;2.73;;;;;;;;;;5027344;28;20435;-70
2021/07/27 14:29:10;;;;;;;4.40;2.60;;;;;;;;;;5027976;28;20430;-70
2021/07/27 14:31:37;;;;;;;4.60;3.47;;;;;;;;;;5023943;28;20419;-70
2021/07/27 14:34:03;;;;;;;4.73;2.83;;;;;;;;;;5026587;28;20441;-70
2021/07/27 14:36:29;;;;;;;3.57;2.60;;;;;;;;;;5026930;28;20465;-70
2021/07/27 14:38:55;;;;;;;4.53;3.07;;;;;;;;;;5022055;28;20894;-70
2021/07/27 14:41:21;;;;;;;3.80;2.40;;;;;;;;;;5030301;28;20426;-70
2021/07/27 14:43:47;;;;;;;3.83;3.27;;;;;;;;;;5031382;28;20446;-70
2021/07/27 14:46:13;;;;;;;7.03;3.27;;;;;;;;;;5028146;28;20446;-70
2021/07/27 14:48:43;;;;;;;5.77;2.90;;;;;;;;;;5028126;28;20441;-70
2021/07/27 14:51:09;;;;;;;5.03;3.23;;;;;;;;;;5019710;28;20829;-70
2021/07/27 14:53:35;;;;;;;3.43;2.90;;;;;;;;;;5018069;28;20434;-70
2021/07/27 14:56:01;;;;;;;3.77;2.50;;;;;;;;;;5022604;28;20449;-70
2021/07/27 14:58:28;;;;;;;3.50;2.67;;;;;;;;;;5022164;28;20522;-70
2021/07/27 15:00:54;;;;;;;4.17;2.90;;;;;;;;;;5019995;28;20432;-69
2021/07/27 15:03:20;;;;;;;3.83;2.50;;;;;;;;;;5029839;28;20434;-69